メインページ
METAR-TAF:

METAR-TAF

空港 :

パリ=シャルル・ド・ゴール空港

パリチャールズ・ドゴール, フランス

緯度: 49-01N, 経度: 002-32E, 海抜: 118m

現時点の気象観測

当レポートは20分前の03:00(UTC)に作成
東/北東の風 7kt
気温 15°C
湿度 77%
気圧 1011 hPa
視程10km以上
高度3400ftの雲はほとんどない
高度5100ftの千切れ雲あり
高度9000ftの千切れ雲あり

METAR: LFPG 140300Z 07007KT 9999 FEW034 BKN051 BKN090 15/11 Q1011 NOSIG

時間: 05:20 (03:20 UTC)

予報

当レポートは3時間25分前の23:55(UTC)に作成
予報は14日の 00時(UTC)から 15日の 06時(UTC)まで有効
変向風 3kt
視程10km以上
1,500メートル以下は雲なし、積乱雲なし
14日の 00時(UTC)から 14日の 03時(UTC)まで一時的に
高度1200ftの千切れ雲あり
14日の 03時(UTC)から 14日の 05時(UTC)まで徐々に
南東の風 5kt
確率 30% :
14日の 04時(UTC)から 14日の 06時(UTC)まで一時的に
視程: 3000m
確率 40% :
14日の 16時(UTC)から 14日の 21時(UTC)まで一時的に
南/南東の風 15kt、最大25ktの突風を伴う
高度4000ftの雲はほとんどない, 積乱雲.
激しい雷雨, 小雨
14日の 18時(UTC)から 14日の 19時(UTC)まで一時的に
南/南西の風 20kt、最大40ktの突風を伴う
視程: 2000m
高度3500ftの雲は散在している, 積乱雲.
激しい雷雨, 雨
確率 40% :
14日の 22時(UTC)から 15日の 06時(UTC)まで一時的に
視程: 4000m
高度1500ftの千切れ雲あり
小雨

TAF: LFPG 132355Z 1400/1506 VRB03KT CAVOK TX22/1415Z TN14/1400Z TEMPO 1400/1403 BKN012 BECMG 1403/1405 13005KT PROB30 TEMPO 1404/1406 3000 BR PROB40 TEMPO 1416/1421 16015G25KT -TSRA FEW040CB TEMPO 1418/1419 20020G40KT 2000 TSRA SCT035CB PROB40 TEMPO 1422/1506 4000 -RA BKN015

4,000以上の空港の気象観測と天気予報(METAR報とTAF報)

利用可能な観測所は地図上に黄色い丸と赤い丸で示す。

丸の上にカーソルを重ねると観測所名を参照できる。

次にクリックすると気象観測と天気予報を参照できる。

マップの切り替え:黒色「×」印の緑ボタンをクリックして拡大、「-」印の緑ボタンをクリックして縮小、緑色の三角印をクリックして隣りの地図に切り替え


METAR-TAF: